Wing, ND (58494)

4:20 AM CDT on September 05, 2015 (GMT -0500)
Bismarck Municipal | | Change Station
CLOSE
Current Station
Airport
Location: Bismarck,
Elevation: 1660 ft
Nearby Weather Stations

Elev 1660 ft 46.78 °N, 100.76 °W | Updated 13 minutes ago

Overcast
Overcast
68 °F
Feels Like 68 °F
N
12
Wind Variable Wind from NE

Today
High -- | Low -- °F
--% Chance of Precip.
Yesterday
High -- | Low -- °F
Precip. -- in
7:05 AM 8:13 PM
Waning Gibbous, 50% visible
Pressure 29.84 in
Visibility 1.8 miles
Clouds Overcast 300 ft
Dew Point 67 °F
Humidity 96%
Rainfall 0.00 in
Snow Depth Not available.
UV 0 out of 12
Pollen 10.60 out of 12
Air Quality Not available.
Flu Activity Not available.
SPECI KBIS 050907Z AUTO 05010KT 1 3/4SM R31/3000VP6000FT BR OVC003 20/19 A2984 RMK AO2 T02000194
Pressure 29.84 in
Visibility 1.8 miles
Clouds Overcast 300 ft
Dew Point 67 °F
Humidity 96%
Rainfall 0.00 in
Snow Depth Not available.
UV 0 out of 12
Pollen 10.60 out of 12
Air Quality Not available.
Flu Activity Not available.
SPECI KBIS 050907Z AUTO 05010KT 1 3/4SM R31/3000VP6000FT BR OVC003 20/19 A2984 RMK AO2 T02000194

10-Day Weather Forecast

×

Almanac

Astronomy

Sep. 05, 2015 Rise Set
Actual Time
Civil Twilight
Nautical Twilight
Astronomical Twilight
Moon
Length of Visible Light
Length of Day
Tomorrow will be .
, % of the Moon is Illuminated

Today's Extremes

State Highs State Lows

Community

WunderPhotos

Upload Photos

1,852,440 photos uploaded!

WunderBlogs® & News

Nearby

Air Quality

  Air Quality AQ Index Pollutant
Not available.

Snow Depth

Station Depth Elevation

Earthquake Activity

City Distance Mag. Time & Date
Minimum magnitude displayed is 2.5.

Coastal Water Temperatures

Place Temperature

Stations

Nearby Weather Stations

Station Location Temp. Windchill Dew Point Humidity Wind Precip. Elev Updated Type